Doba Airport

TD-0002 · Logone Oriental, 乍得

METAR TD-0002 · Doba Airport

14 七月 21:00 LT
2h
使用的METAR站距离机场387 km。
罗盘
风向 的 风向 120° Doba Airport 3/21
风: 2 kt, 1 beaufort


2 kt
改变
0 ft 1.000 2.000 3.000 4.000 5.000
Cloud Cloud
FEW 1.600
METAR FKKR 142000Z 12002KT 9999 FEW016 28/26 Q1012 NOSIG

METAR Doba Airport - TD-0002

Doba Airport是,乍得中的小机场。 该机场位于纬度8,70054和经度16,83427。 该机场有一条跑道: 3/21. 这个机场没有ICAO代码,我们使用TD-0002作为参考。 机场在N Djamena FIR中。

该航空气象观测是针对Garoua International Airport在2024年7月14日 21:00, 当地时间进行的。

机场观察

风向为120°,速度为2 kt。

可见度为10 km 或者更多。

有几云在1.600 ft的高度。 没有观察到天花板。

温度和风寒是28 °C。 热指数为33。 露点为26 °C,相对湿度为89%。 海平面上的气压为1012 hPa (QNH)。

白天

今天,太阳从05:41升起,在18:16降落。 这适用于Doba Airport,世界夏令时可能有所不同。 当地时间与世界标准时间之间的时差为+1 小时。 夏令时目前正在进行中。

公司介绍

我们没有关于这个机场的公司信息。

体会

到Vliegles.nl去找飞行课程,跳伞和其他飞行体验。 浏览页面,了解Doba Airport附近所有可用的活动。 你也可以使用搜索功能来寻找你所在地附近的特定飞行课程、跳伞或其他飞行体验。

跑道

Id 标题 侧风 逆风 侧风 %
3/21 027°-207° 2 kt 100 %

逆风成分最大的方向会被突出显示,并用于横风计算。 这并不一定意味着这个方向在使用。

乌云

1.600 ft FEW 几云

温度 & 天气

温度 28 °C
露点 26 °C
相对湿度 89%
热度指数 33 °C
Kp-index 1 (0-9)

白天

日出
05:53 (6:06)
中午
12:12
日落
18:31

小工具

你想在你的网站上有一个关于Doba Airport的当前航空天气(METAR)的小部件吗?

显示HTML代码
报告变更